Portada
METAR-TAF:

METAR-TAF

Aeroports :

New Haven, Connecticut, Estats Units d'Amèrica

latitud: 41-15-50N, longitud: 072-53-14W, altitud: 4 m

Observació

L'informe es va fer fa 15 minuts, a les 20:53 UTC
Vent 10 kt del Est/Sud-Est amb ràfegues de 16 kt
Temperatura 18°C
Humitat 64%
Pressió 1024 hPa
Visibilitat: 16.1 km
Cel clar

METAR: KHVN 242053Z 11010G16KT 10SM CLR 18/11 A3025 RMK AO2 SLP241 T01830106 56004

Hora: 17:08 (21:08 UTC)


TAF: manca

Observacions i pronòstics meteorològics de més de 4000 aeroports (METAR i TAF).

Les estacions disponibles són els punts grocs i vermells al mapa.

Posi el ratolí al punt desitjat per veure el nom de l'estació.

Feu clic per veure les observacions i els pronòstics meteorològics.

Per canviar el mapa: feu clic els botons verds amb una creu de color negre per apropar; al botó verd amb un guió per allunyar la imatge; o en les fletxes verdes per a mapes adjacents.


METAR-TAF: